sensor_id;sensor_type;location;lat;lon;timestamp;pressure;altitude;pressure_sealevel;temperature;humidity
8653;BME280;4364;52.426;9.424;2023-07-13T00:00:09;100847.50;;;17.41;75.24
8653;BME280;4364;52.426;9.424;2023-07-13T00:02:40;100844.59;;;17.47;75.12
8653;BME280;4364;52.426;9.424;2023-07-13T00:05:07;100844.75;;;17.50;75.38
8653;BME280;4364;52.426;9.424;2023-07-13T00:07:34;100846.88;;;17.53;75.31
8653;BME280;4364;52.426;9.424;2023-07-13T00:10:02;100849.47;;;17.58;75.27
8653;BME280;4364;52.426;9.424;2023-07-13T00:12:34;100848.19;;;17.56;75.39
8653;BME280;4364;52.426;9.424;2023-07-13T00:15:10;100848.00;;;17.52;75.67
8653;BME280;4364;52.426;9.424;2023-07-13T00:17:38;100849.75;;;17.39;75.49
8653;BME280;4364;52.426;9.424;2023-07-13T00:20:06;100852.50;;;17.39;75.62
8653;BME280;4364;52.426;9.424;2023-07-13T00:22:33;100856.69;;;17.37;76.31
8653;BME280;4364;52.426;9.424;2023-07-13T00:25:00;100857.78;;;17.27;76.46
8653;BME280;4364;52.426;9.424;2023-07-13T00:27:27;100855.81;;;17.19;76.54
8653;BME280;4364;52.426;9.424;2023-07-13T00:29:56;100852.91;;;17.15;76.94
8653;BME280;4364;52.426;9.424;2023-07-13T00:32:22;100863.41;;;17.13;77.34
8653;BME280;4364;52.426;9.424;2023-07-13T00:34:49;100863.38;;;17.04;77.51
8653;BME280;4364;52.426;9.424;2023-07-13T00:37:17;100858.19;;;17.03;77.65
8653;BME280;4364;52.426;9.424;2023-07-13T00:39:44;100863.34;;;16.96;77.86
8653;BME280;4364;52.426;9.424;2023-07-13T00:42:11;100870.75;;;16.95;78.02
8653;BME280;4364;52.426;9.424;2023-07-13T00:44:38;100857.66;;;16.92;78.04
8653;BME280;4364;52.426;9.424;2023-07-13T00:47:06;100861.41;;;16.96;77.92
8653;BME280;4364;52.426;9.424;2023-07-13T00:49:35;100866.66;;;16.84;78.25
8653;BME280;4364;52.426;9.424;2023-07-13T00:52:08;100871.03;;;16.85;78.33
8653;BME280;4364;52.426;9.424;2023-07-13T00:54:41;100863.28;;;16.87;78.52
8653;BME280;4364;52.426;9.424;2023-07-13T00:57:12;100867.97;;;16.87;78.59
8653;BME280;4364;52.426;9.424;2023-07-13T00:59:42;100863.69;;;16.80;78.70
8653;BME280;4364;52.426;9.424;2023-07-13T01:02:11;100872.03;;;16.66;79.02
8653;BME280;4364;52.426;9.424;2023-07-13T01:04:38;100871.22;;;16.66;79.33
8653;BME280;4364;52.426;9.424;2023-07-13T01:07:06;100862.06;;;16.71;79.30
8653;BME280;4364;52.426;9.424;2023-07-13T01:09:33;100860.28;;;16.75;79.36
8653;BME280;4364;52.426;9.424;2023-07-13T01:12:00;100861.78;;;16.58;79.78
8653;BME280;4364;52.426;9.424;2023-07-13T01:14:29;100864.63;;;16.44;80.56
8653;BME280;4364;52.426;9.424;2023-07-13T01:16:55;100863.31;;;16.42;80.89
8653;BME280;4364;52.426;9.424;2023-07-13T01:19:49;100864.31;;;16.23;82.05
8653;BME280;4364;52.426;9.424;2023-07-13T01:22:17;100860.94;;;16.26;81.66
8653;BME280;4364;52.426;9.424;2023-07-13T01:24:46;100864.78;;;16.25;81.81
8653;BME280;4364;52.426;9.424;2023-07-13T01:27:17;100865.81;;;16.29;81.68
8653;BME280;4364;52.426;9.424;2023-07-13T01:29:44;100857.53;;;16.21;81.74
8653;BME280;4364;52.426;9.424;2023-07-13T01:32:17;100860.06;;;16.17;82.23
8653;BME280;4364;52.426;9.424;2023-07-13T01:34:53;100861.44;;;16.06;82.87
8653;BME280;4364;52.426;9.424;2023-07-13T01:37:24;100851.44;;;16.10;83.11
8653;BME280;4364;52.426;9.424;2023-07-13T01:39:51;100850.19;;;15.93;84.14
8653;BME280;4364;52.426;9.424;2023-07-13T01:42:18;100854.19;;;15.87;84.70
8653;BME280;4364;52.426;9.424;2023-07-13T01:44:47;100860.38;;;15.79;84.81
8653;BME280;4364;52.426;9.424;2023-07-13T01:47:13;100866.66;;;15.80;84.57
8653;BME280;4364;52.426;9.424;2023-07-13T01:49:40;100867.34;;;15.85;84.13
8653;BME280;4364;52.426;9.424;2023-07-13T01:52:07;100867.34;;;15.85;84.16
8653;BME280;4364;52.426;9.424;2023-07-13T01:54:34;100867.56;;;15.89;83.64
8653;BME280;4364;52.426;9.424;2023-07-13T01:57:01;100864.59;;;15.99;82.87
8653;BME280;4364;52.426;9.424;2023-07-13T01:59:27;100865.75;;;15.84;82.70
8653;BME280;4364;52.426;9.424;2023-07-13T02:01:54;100868.00;;;15.82;83.53
8653;BME280;4364;52.426;9.424;2023-07-13T02:04:20;100871.25;;;15.84;82.98
8653;BME280;4364;52.426;9.424;2023-07-13T02:06:48;100871.44;;;15.74;83.00
8653;BME280;4364;52.426;9.424;2023-07-13T02:09:15;100861.69;;;15.68;83.88
8653;BME280;4364;52.426;9.424;2023-07-13T02:11:41;100869.91;;;15.68;83.60
8653;BME280;4364;52.426;9.424;2023-07-13T02:14:08;100865.75;;;15.70;83.26
8653;BME280;4364;52.426;9.424;2023-07-13T02:16:34;100871.56;;;15.69;83.47
8653;BME280;4364;52.426;9.424;2023-07-13T02:19:02;100871.06;;;15.81;82.43
8653;BME280;4364;52.426;9.424;2023-07-13T02:21:28;100879.09;;;15.77;82.36
8653;BME280;4364;52.426;9.424;2023-07-13T02:23:55;100886.25;;;15.73;82.55
8653;BME280;4364;52.426;9.424;2023-07-13T02:26:21;100886.88;;;15.70;82.68
8653;BME280;4364;52.426;9.424;2023-07-13T02:28:48;100884.72;;;15.67;83.24
8653;BME280;4364;52.426;9.424;2023-07-13T02:31:15;100879.25;;;15.67;83.04
8653;BME280;4364;52.426;9.424;2023-07-13T02:33:42;100889.59;;;15.70;82.94
8653;BME280;4364;52.426;9.424;2023-07-13T02:36:10;100886.66;;;15.66;82.98
8653;BME280;4364;52.426;9.424;2023-07-13T02:38:39;100884.72;;;15.67;82.71
8653;BME280;4364;52.426;9.424;2023-07-13T02:41:07;100879.47;;;15.70;82.66
8653;BME280;4364;52.426;9.424;2023-07-13T02:43:36;100876.09;;;15.73;82.62
8653;BME280;4364;52.426;9.424;2023-07-13T02:46:04;100873.69;;;15.72;82.26
8653;BME280;4364;52.426;9.424;2023-07-13T02:48:36;100870.56;;;15.79;82.52
8653;BME280;4364;52.426;9.424;2023-07-13T02:51:04;100880.56;;;15.83;81.82
8653;BME280;4364;52.426;9.424;2023-07-13T02:53:31;100872.03;;;15.71;82.32
8653;BME280;4364;52.426;9.424;2023-07-13T02:55:58;100875.69;;;15.80;82.14
8653;BME280;4364;52.426;9.424;2023-07-13T02:58:24;100877.44;;;15.76;81.87
8653;BME280;4364;52.426;9.424;2023-07-13T03:00:51;100875.28;;;15.73;81.41
8653;BME280;4364;52.426;9.424;2023-07-13T03:03:18;100884.00;;;15.75;81.60
8653;BME280;4364;52.426;9.424;2023-07-13T03:05:45;100879.09;;;15.77;81.95
8653;BME280;4364;52.426;9.424;2023-07-13T03:08:18;100873.97;;;15.84;81.74
8653;BME280;4364;52.426;9.424;2023-07-13T03:10:46;100876.31;;;15.91;81.20
8653;BME280;4364;52.426;9.424;2023-07-13T03:13:13;100883.72;;;15.90;80.63
8653;BME280;4364;52.426;9.424;2023-07-13T03:15:40;100882.78;;;15.95;81.04
8653;BME280;4364;52.426;9.424;2023-07-13T03:18:07;100875.38;;;15.96;80.66
8653;BME280;4364;52.426;9.424;2023-07-13T03:20:34;100883.50;;;16.01;80.38
8653;BME280;4364;52.426;9.424;2023-07-13T03:23:00;100874.75;;;15.99;80.14
8653;BME280;4364;52.426;9.424;2023-07-13T03:25:27;100881.84;;;16.00;80.48
8653;BME280;4364;52.426;9.424;2023-07-13T03:27:54;100879.31;;;16.03;79.81
8653;BME280;4364;52.426;9.424;2023-07-13T03:30:21;100886.72;;;16.03;79.70
8653;BME280;4364;52.426;9.424;2023-07-13T03:32:47;100879.22;;;15.95;80.77
8653;BME280;4364;52.426;9.424;2023-07-13T03:35:14;100881.41;;;15.84;81.86
8653;BME280;4364;52.426;9.424;2023-07-13T03:37:40;100883.72;;;15.90;81.58
8653;BME280;4364;52.426;9.424;2023-07-13T03:40:12;100877.09;;;15.91;81.78
8653;BME280;4364;52.426;9.424;2023-07-13T03:42:42;100886.13;;;15.92;80.92
8653;BME280;4364;52.426;9.424;2023-07-13T03:45:08;100886.34;;;15.96;80.61
8653;BME280;4364;52.426;9.424;2023-07-13T03:47:35;100884.84;;;16.12;79.35
8653;BME280;4364;52.426;9.424;2023-07-13T03:50:04;100893.72;;;16.09;79.82
8653;BME280;4364;52.426;9.424;2023-07-13T03:52:31;100894.34;;;16.06;79.20
8653;BME280;4364;52.426;9.424;2023-07-13T03:54:58;100890.16;;;16.08;79.05
8653;BME280;4364;52.426;9.424;2023-07-13T03:57:25;100887.84;;;16.02;79.25
8653;BME280;4364;52.426;9.424;2023-07-13T03:59:51;100894.34;;;16.06;79.28
8653;BME280;4364;52.426;9.424;2023-07-13T04:02:18;100895.94;;;16.07;78.66
8653;BME280;4364;52.426;9.424;2023-07-13T04:04:45;100895.34;;;16.10;78.13
8653;BME280;4364;52.426;9.424;2023-07-13T04:07:12;100889.22;;;16.13;78.08
8653;BME280;4364;52.426;9.424;2023-07-13T04:09:39;100892.59;;;16.10;78.19
8653;BME280;4364;52.426;9.424;2023-07-13T04:12:06;100891.28;;;16.07;78.63
8653;BME280;4364;52.426;9.424;2023-07-13T04:14:33;100887.22;;;16.05;78.54
8653;BME280;4364;52.426;9.424;2023-07-13T04:16:59;100890.41;;;15.98;78.93
8653;BME280;4364;52.426;9.424;2023-07-13T04:19:26;100889.91;;;15.96;78.81
8653;BME280;4364;52.426;9.424;2023-07-13T04:21:53;100898.63;;;15.98;79.03
8653;BME280;4364;52.426;9.424;2023-07-13T04:24:19;100903.13;;;15.94;78.68
8653;BME280;4364;52.426;9.424;2023-07-13T04:26:46;100898.63;;;15.98;78.59
8653;BME280;4364;52.426;9.424;2023-07-13T04:29:12;100902.06;;;16.04;78.37
8653;BME280;4364;52.426;9.424;2023-07-13T04:31:39;100902.81;;;15.96;78.97
8653;BME280;4364;52.426;9.424;2023-07-13T04:34:06;100904.09;;;15.98;78.64
8653;BME280;4364;52.426;9.424;2023-07-13T04:36:33;100910.00;;;15.91;78.81
8653;BME280;4364;52.426;9.424;2023-07-13T04:38:59;100909.31;;;15.86;79.33
8653;BME280;4364;52.426;9.424;2023-07-13T04:41:26;100904.22;;;15.93;79.40
8653;BME280;4364;52.426;9.424;2023-07-13T04:43:52;100905.94;;;16.03;79.02
8653;BME280;4364;52.426;9.424;2023-07-13T04:46:22;100913.06;;;16.04;78.60
8653;BME280;4364;52.426;9.424;2023-07-13T04:48:49;100911.91;;;16.05;78.73
8653;BME280;4364;52.426;9.424;2023-07-13T04:51:17;100907.56;;;16.04;78.53
8653;BME280;4364;52.426;9.424;2023-07-13T04:53:43;100912.69;;;16.19;78.20
8653;BME280;4364;52.426;9.424;2023-07-13T04:56:10;100919.34;;;16.27;78.01
8653;BME280;4364;52.426;9.424;2023-07-13T04:58:37;100922.41;;;16.25;78.32
8653;BME280;4364;52.426;9.424;2023-07-13T05:01:05;100919.34;;;16.27;78.75
8653;BME280;4364;52.426;9.424;2023-07-13T05:03:33;100920.50;;;16.26;79.26
8653;BME280;4364;52.426;9.424;2023-07-13T05:06:05;100916.59;;;16.41;78.13
8653;BME280;4364;52.426;9.424;2023-07-13T05:08:32;100913.84;;;16.41;78.37
8653;BME280;4364;52.426;9.424;2023-07-13T05:11:00;100919.34;;;16.41;78.44
8653;BME280;4364;52.426;9.424;2023-07-13T05:13:27;100919.03;;;16.42;77.49
8653;BME280;4364;52.426;9.424;2023-07-13T05:15:58;100930.31;;;16.41;78.25
8653;BME280;4364;52.426;9.424;2023-07-13T05:18:25;100923.25;;;16.48;77.21
8653;BME280;4364;52.426;9.424;2023-07-13T05:21:06;100929.19;;;16.64;76.82
8653;BME280;4364;52.426;9.424;2023-07-13T05:23:34;100926.38;;;16.56;76.68
8653;BME280;4364;52.426;9.424;2023-07-13T05:26:04;100928.47;;;16.59;76.38
8653;BME280;4364;52.426;9.424;2023-07-13T05:28:35;100932.50;;;16.53;76.39
8653;BME280;4364;52.426;9.424;2023-07-13T05:31:03;100933.59;;;16.52;76.37
8653;BME280;4364;52.426;9.424;2023-07-13T05:33:30;100939.69;;;16.62;76.84
8653;BME280;4364;52.426;9.424;2023-07-13T05:35:56;100940.97;;;16.65;76.51
8653;BME280;4364;52.426;9.424;2023-07-13T05:38:23;100938.66;;;16.81;76.24
8653;BME280;4364;52.426;9.424;2023-07-13T05:40:49;100942.91;;;16.87;75.31
8653;BME280;4364;52.426;9.424;2023-07-13T05:43:16;100940.19;;;16.87;75.24
8653;BME280;4364;52.426;9.424;2023-07-13T05:45:43;100945.03;;;16.90;75.15
8653;BME280;4364;52.426;9.424;2023-07-13T05:48:09;100954.03;;;17.04;75.67
8653;BME280;4364;52.426;9.424;2023-07-13T05:50:36;100950.66;;;17.08;74.73
8653;BME280;4364;52.426;9.424;2023-07-13T05:53:03;100951.88;;;17.24;74.10
8653;BME280;4364;52.426;9.424;2023-07-13T05:55:30;100946.78;;;17.49;72.02
8653;BME280;4364;52.426;9.424;2023-07-13T05:57:59;100949.78;;;17.70;71.37
8653;BME280;4364;52.426;9.424;2023-07-13T06:00:26;100947.03;;;17.70;71.09
8653;BME280;4364;52.426;9.424;2023-07-13T06:02:53;100958.13;;;17.96;69.46
8653;BME280;4364;52.426;9.424;2023-07-13T06:05:19;100956.69;;;18.07;68.88
8653;BME280;4364;52.426;9.424;2023-07-13T06:07:46;100960.59;;;18.24;68.21
8653;BME280;4364;52.426;9.424;2023-07-13T06:10:12;100953.00;;;18.29;66.96
8653;BME280;4364;52.426;9.424;2023-07-13T06:12:39;100961.06;;;18.26;67.78
8653;BME280;4364;52.426;9.424;2023-07-13T06:15:06;100961.06;;;18.08;67.18
8653;BME280;4364;52.426;9.424;2023-07-13T06:17:33;100956.88;;;18.20;66.70
8653;BME280;4364;52.426;9.424;2023-07-13T06:20:00;100958.16;;;18.13;66.59
8653;BME280;4364;52.426;9.424;2023-07-13T06:22:27;100953.16;;;18.33;66.51
8653;BME280;4364;52.426;9.424;2023-07-13T06:24:53;100953.00;;;18.47;65.69
8653;BME280;4364;52.426;9.424;2023-07-13T06:27:20;100963.34;;;18.59;65.21
8653;BME280;4364;52.426;9.424;2023-07-13T06:29:46;100954.63;;;18.48;65.19
8653;BME280;4364;52.426;9.424;2023-07-13T06:32:13;100963.22;;;18.46;65.17
8653;BME280;4364;52.426;9.424;2023-07-13T06:34:39;100970.63;;;18.46;65.38
8653;BME280;4364;52.426;9.424;2023-07-13T06:37:09;100976.47;;;18.53;64.39
8653;BME280;4364;52.426;9.424;2023-07-13T06:39:36;100975.34;;;18.45;63.68
8653;BME280;4364;52.426;9.424;2023-07-13T06:42:03;100974.53;;;18.45;64.63
8653;BME280;4364;52.426;9.424;2023-07-13T06:44:30;100966.75;;;18.73;64.37
8653;BME280;4364;52.426;9.424;2023-07-13T06:46:57;100983.94;;;18.70;63.28
8653;BME280;4364;52.426;9.424;2023-07-13T06:49:23;100980.69;;;18.85;62.98
8653;BME280;4364;52.426;9.424;2023-07-13T06:51:50;100989.94;;;18.90;62.37
8653;BME280;4364;52.426;9.424;2023-07-13T06:54:16;100985.72;;;18.83;62.32
8653;BME280;4364;52.426;9.424;2023-07-13T06:56:43;100992.66;;;18.72;61.99
8653;BME280;4364;52.426;9.424;2023-07-13T06:59:09;100989.28;;;19.01;62.18
8653;BME280;4364;52.426;9.424;2023-07-13T07:01:36;100995.25;;;19.12;61.17
8653;BME280;4364;52.426;9.424;2023-07-13T07:04:07;100999.47;;;19.10;60.56
8653;BME280;4364;52.426;9.424;2023-07-13T07:06:33;100991.84;;;19.06;61.22
8653;BME280;4364;52.426;9.424;2023-07-13T07:09:00;100999.47;;;19.01;61.23
8653;BME280;4364;52.426;9.424;2023-07-13T07:11:27;101004.31;;;19.13;61.15
8653;BME280;4364;52.426;9.424;2023-07-13T07:13:53;100996.22;;;19.07;60.92
8653;BME280;4364;52.426;9.424;2023-07-13T07:16:21;101001.34;;;19.35;61.42
8653;BME280;4364;52.426;9.424;2023-07-13T07:18:48;100996.50;;;19.71;60.42
8653;BME280;4364;52.426;9.424;2023-07-13T07:21:14;100996.44;;;19.88;58.98
8653;BME280;4364;52.426;9.424;2023-07-13T07:23:42;100995.53;;;19.75;59.52
8653;BME280;4364;52.426;9.424;2023-07-13T07:26:09;100996.00;;;19.77;59.71
8653;BME280;4364;52.426;9.424;2023-07-13T07:28:37;101002.53;;;19.64;59.84
8653;BME280;4364;52.426;9.424;2023-07-13T07:31:12;100999.72;;;19.82;59.09
8653;BME280;4364;52.426;9.424;2023-07-13T07:33:41;101002.16;;;19.83;59.16
8653;BME280;4364;52.426;9.424;2023-07-13T07:36:08;101008.66;;;19.31;60.31
8653;BME280;4364;52.426;9.424;2023-07-13T07:38:38;101019.69;;;19.22;60.89
8653;BME280;4364;52.426;9.424;2023-07-13T07:41:05;101012.25;;;19.14;61.39
8653;BME280;4364;52.426;9.424;2023-07-13T07:43:34;101012.56;;;19.30;61.17
8653;BME280;4364;52.426;9.424;2023-07-13T07:46:02;101007.94;;;19.52;61.00
8653;BME280;4364;52.426;9.424;2023-07-13T07:48:29;101000.94;;;20.02;59.96
8653;BME280;4364;52.426;9.424;2023-07-13T07:50:56;100998.31;;;20.26;58.63
8653;BME280;4364;52.426;9.424;2023-07-13T07:53:22;101004.69;;;19.97;59.05
8653;BME280;4364;52.426;9.424;2023-07-13T07:55:49;101006.53;;;19.84;59.49
8653;BME280;4364;52.426;9.424;2023-07-13T07:58:19;101003.50;;;19.59;60.50
8653;BME280;4364;52.426;9.424;2023-07-13T08:00:48;101010.50;;;19.57;60.53
8653;BME280;4364;52.426;9.424;2023-07-13T08:03:17;101009.22;;;19.63;61.09
8653;BME280;4364;52.426;9.424;2023-07-13T08:05:47;101007.00;;;19.39;61.51
8653;BME280;4364;52.426;9.424;2023-07-13T08:08:34;101016.91;;;19.40;61.98
8653;BME280;4364;52.426;9.424;2023-07-13T08:11:06;101011.44;;;19.78;61.29
8653;BME280;4364;52.426;9.424;2023-07-13T08:13:36;101009.34;;;19.67;61.24
8653;BME280;4364;52.426;9.424;2023-07-13T08:16:05;101001.22;;;19.70;61.47
8653;BME280;4364;52.426;9.424;2023-07-13T08:18:32;101004.31;;;19.69;60.75
8653;BME280;4364;52.426;9.424;2023-07-13T08:21:06;101005.94;;;19.61;61.38
8653;BME280;4364;52.426;9.424;2023-07-13T08:23:33;101008.00;;;19.73;60.68
8653;BME280;4364;52.426;9.424;2023-07-13T08:26:01;101009.88;;;19.98;60.72
8653;BME280;4364;52.426;9.424;2023-07-13T08:28:28;101012.38;;;20.12;60.08
8653;BME280;4364;52.426;9.424;2023-07-13T08:30:54;101006.28;;;20.49;59.21
8653;BME280;4364;52.426;9.424;2023-07-13T08:33:22;101014.97;;;20.39;59.22
8653;BME280;4364;52.426;9.424;2023-07-13T08:35:51;101016.66;;;20.52;58.94
8653;BME280;4364;52.426;9.424;2023-07-13T08:38:18;101013.69;;;20.36;59.76
8653;BME280;4364;52.426;9.424;2023-07-13T08:40:50;101028.75;;;20.17;59.43
8653;BME280;4364;52.426;9.424;2023-07-13T08:43:22;101018.03;;;20.16;59.65
8653;BME280;4364;52.426;9.424;2023-07-13T08:45:53;101025.19;;;20.17;59.47
8653;BME280;4364;52.426;9.424;2023-07-13T08:48:32;101015.28;;;20.16;59.65
8653;BME280;4364;52.426;9.424;2023-07-13T08:51:24;101011.31;;;20.05;60.63
8653;BME280;4364;52.426;9.424;2023-07-13T08:53:58;101011.56;;;20.12;60.68
8653;BME280;4364;52.426;9.424;2023-07-13T08:56:28;101013.94;;;20.22;59.53
8653;BME280;4364;52.426;9.424;2023-07-13T08:58:58;101011.72;;;20.15;60.17
8653;BME280;4364;52.426;9.424;2023-07-13T09:04:18;101012.50;;;19.95;60.53
8653;BME280;4364;52.426;9.424;2023-07-13T09:06:55;101017.00;;;19.99;59.74
8653;BME280;4364;52.426;9.424;2023-07-13T09:09:45;101006.03;;;20.42;58.62
8653;BME280;4364;52.426;9.424;2023-07-13T09:15:02;101010.38;;;20.43;58.23
8653;BME280;4364;52.426;9.424;2023-07-13T09:17:39;101015.56;;;20.44;57.90
8653;BME280;4364;52.426;9.424;2023-07-13T09:22:48;101007.16;;;21.16;54.95
8653;BME280;4364;52.426;9.424;2023-07-13T09:25:24;101009.13;;;21.28;54.36
8653;BME280;4364;52.426;9.424;2023-07-13T09:27:56;101006.00;;;21.63;54.46
8653;BME280;4364;52.426;9.424;2023-07-13T09:30:34;101003.59;;;21.86;53.36
8653;BME280;4364;52.426;9.424;2023-07-13T09:33:03;101014.88;;;21.81;53.04
8653;BME280;4364;52.426;9.424;2023-07-13T09:35:30;101015.13;;;21.63;53.54
8653;BME280;4364;52.426;9.424;2023-07-13T09:38:01;101011.88;;;21.86;53.26
8653;BME280;4364;52.426;9.424;2023-07-13T09:43:18;101008.13;;;21.45;53.81
8653;BME280;4364;52.426;9.424;2023-07-13T09:45:47;101004.63;;;21.81;52.84
8653;BME280;4364;52.426;9.424;2023-07-13T09:48:16;101006.44;;;21.65;51.96
8653;BME280;4364;52.426;9.424;2023-07-13T09:50:43;101011.59;;;21.42;52.85
8653;BME280;4364;52.426;9.424;2023-07-13T09:53:15;101010.09;;;21.32;53.06
8653;BME280;4364;52.426;9.424;2023-07-13T09:55:47;101004.91;;;21.31;52.68
8653;BME280;4364;52.426;9.424;2023-07-13T09:58:22;101019.72;;;21.14;54.05
8653;BME280;4364;52.426;9.424;2023-07-13T10:01:02;101014.31;;;21.17;54.00
8653;BME280;4364;52.426;9.424;2023-07-13T10:03:34;101017.31;;;21.24;53.93
8653;BME280;4364;52.426;9.424;2023-07-13T10:06:20;101010.63;;;21.83;51.40
8653;BME280;4364;52.426;9.424;2023-07-13T10:08:50;101012.34;;;22.00;50.94
8653;BME280;4364;52.426;9.424;2023-07-13T10:11:27;101028.59;;;21.90;50.18
8653;BME280;4364;52.426;9.424;2023-07-13T10:13:58;101024.13;;;21.97;50.22
8653;BME280;4364;52.426;9.424;2023-07-13T10:16:30;101017.53;;;21.77;51.39
8653;BME280;4364;52.426;9.424;2023-07-13T10:19:18;101018.81;;;21.80;51.03
8653;BME280;4364;52.426;9.424;2023-07-13T10:21:55;101026.31;;;22.29;51.44
8653;BME280;4364;52.426;9.424;2023-07-13T10:24:26;101007.38;;;22.71;48.47
8653;BME280;4364;52.426;9.424;2023-07-13T10:27:04;101007.44;;;23.31;47.37
8653;BME280;4364;52.426;9.424;2023-07-13T10:29:38;101005.47;;;23.16;47.43
8653;BME280;4364;52.426;9.424;2023-07-13T10:32:11;101000.81;;;23.52;46.36
8653;BME280;4364;52.426;9.424;2023-07-13T10:34:40;101014.00;;;23.55;46.40
8653;BME280;4364;52.426;9.424;2023-07-13T10:37:22;101018.63;;;22.91;47.52
8653;BME280;4364;52.426;9.424;2023-07-13T10:39:50;101014.03;;;22.83;47.60
8653;BME280;4364;52.426;9.424;2023-07-13T10:44:52;101021.81;;;22.77;46.35
8653;BME280;4364;52.426;9.424;2023-07-13T10:47:19;101026.97;;;22.38;48.03
8653;BME280;4364;52.426;9.424;2023-07-13T10:49:47;101020.84;;;22.20;49.49
8653;BME280;4364;52.426;9.424;2023-07-13T10:52:40;101025.59;;;22.19;49.36
8653;BME280;4364;52.426;9.424;2023-07-13T10:55:30;101017.81;;;22.50;48.53
8653;BME280;4364;52.426;9.424;2023-07-13T10:58:02;101028.22;;;22.53;47.55
8653;BME280;4364;52.426;9.424;2023-07-13T11:00:44;101023.41;;;23.06;46.65
8653;BME280;4364;52.426;9.424;2023-07-13T11:03:14;101014.31;;;23.22;44.92
8653;BME280;4364;52.426;9.424;2023-07-13T11:05:42;101035.97;;;23.32;45.39
8653;BME280;4364;52.426;9.424;2023-07-13T11:18:51;101030.00;;;22.20;47.50
8653;BME280;4364;52.426;9.424;2023-07-13T11:21:19;101024.56;;;22.36;48.00
8653;BME280;4364;52.426;9.424;2023-07-13T11:24:16;101025.91;;;22.83;44.78
8653;BME280;4364;52.426;9.424;2023-07-13T11:31:42;101036.63;;;22.56;45.19
8653;BME280;4364;52.426;9.424;2023-07-13T11:34:14;101032.66;;;22.29;45.58
8653;BME280;4364;52.426;9.424;2023-07-13T11:36:45;101025.28;;;22.09;46.78
8653;BME280;4364;52.426;9.424;2023-07-13T11:39:29;101030.13;;;21.87;47.19
8653;BME280;4364;52.426;9.424;2023-07-13T11:42:00;101022.28;;;21.89;47.03
8653;BME280;4364;52.426;9.424;2023-07-13T11:44:30;101032.72;;;22.45;46.71
8653;BME280;4364;52.426;9.424;2023-07-13T11:47:08;101028.03;;;22.74;46.17
8653;BME280;4364;52.426;9.424;2023-07-13T11:49:43;101017.34;;;22.88;44.92
8653;BME280;4364;52.426;9.424;2023-07-13T11:52:25;101010.25;;;22.75;45.29
8653;BME280;4364;52.426;9.424;2023-07-13T11:54:56;101024.53;;;22.49;44.39
8653;BME280;4364;52.426;9.424;2023-07-13T11:57:27;101020.06;;;22.19;45.32
8653;BME280;4364;52.426;9.424;2023-07-13T11:59:55;101014.06;;;22.05;45.80
8653;BME280;4364;52.426;9.424;2023-07-13T12:02:29;101023.84;;;22.39;45.61
8653;BME280;4364;52.426;9.424;2023-07-13T12:04:59;101019.25;;;22.19;45.74
8653;BME280;4364;52.426;9.424;2023-07-13T12:07:29;101029.06;;;22.16;46.21
8653;BME280;4364;52.426;9.424;2023-07-13T12:13:01;101024.56;;;22.24;48.25
8653;BME280;4364;52.426;9.424;2023-07-13T12:15:38;101030.19;;;22.52;46.45
8653;BME280;4364;52.426;9.424;2023-07-13T12:18:14;101017.91;;;22.66;44.99
8653;BME280;4364;52.426;9.424;2023-07-13T12:20:41;101022.09;;;22.88;45.75
8653;BME280;4364;52.426;9.424;2023-07-13T12:23:22;101017.97;;;23.10;45.33
8653;BME280;4364;52.426;9.424;2023-07-13T12:25:51;101010.78;;;23.69;44.90
8653;BME280;4364;52.426;9.424;2023-07-13T12:28:22;101022.41;;;24.07;43.61
8653;BME280;4364;52.426;9.424;2023-07-13T12:30:49;101024.72;;;23.57;42.25
8653;BME280;4364;52.426;9.424;2023-07-13T12:33:16;101016.31;;;23.37;43.01
8653;BME280;4364;52.426;9.424;2023-07-13T12:35:46;101019.16;;;23.25;43.81
8653;BME280;4364;52.426;9.424;2023-07-13T12:38:14;101019.41;;;22.91;45.03
8653;BME280;4364;52.426;9.424;2023-07-13T12:40:41;101034.19;;;22.67;45.05
8653;BME280;4364;52.426;9.424;2023-07-13T12:43:12;101040.94;;;22.42;46.15
8653;BME280;4364;52.426;9.424;2023-07-13T12:45:58;101074.72;;;21.73;53.42
8653;BME280;4364;52.426;9.424;2023-07-13T12:48:25;101062.44;;;20.83;54.70
8653;BME280;4364;52.426;9.424;2023-07-13T12:51:12;101058.44;;;20.50;54.27
8653;BME280;4364;52.426;9.424;2023-07-13T12:53:43;101065.94;;;20.20;53.90
8653;BME280;4364;52.426;9.424;2023-07-13T12:56:19;101062.13;;;20.33;51.85
8653;BME280;4364;52.426;9.424;2023-07-13T12:58:47;101058.97;;;20.14;52.93
8653;BME280;4364;52.426;9.424;2023-07-13T13:01:21;101057.59;;;20.29;52.85
8653;BME280;4364;52.426;9.424;2023-07-13T13:03:53;101053.91;;;20.16;53.55
8653;BME280;4364;52.426;9.424;2023-07-13T13:06:25;101071.72;;;20.27;54.71
8653;BME280;4364;52.426;9.424;2023-07-13T13:08:57;101074.09;;;20.38;56.34
8653;BME280;4364;52.426;9.424;2023-07-13T13:11:27;101093.13;;;20.01;58.35
8653;BME280;4364;52.426;9.424;2023-07-13T13:13:54;101107.03;;;19.66;59.70
8653;BME280;4364;52.426;9.424;2023-07-13T13:18:52;101107.59;;;19.15;61.20
8653;BME280;4364;52.426;9.424;2023-07-13T13:21:20;101104.53;;;19.08;63.40
8653;BME280;4364;52.426;9.424;2023-07-13T13:23:47;101103.50;;;19.48;62.49
8653;BME280;4364;52.426;9.424;2023-07-13T13:26:15;101102.22;;;19.36;62.46
8653;BME280;4364;52.426;9.424;2023-07-13T13:28:45;101108.19;;;19.47;63.05
8653;BME280;4364;52.426;9.424;2023-07-13T13:31:14;101112.72;;;19.78;62.18
8653;BME280;4364;52.426;9.424;2023-07-13T13:33:43;101116.09;;;19.84;61.29
8653;BME280;4364;52.426;9.424;2023-07-13T13:36:18;101108.16;;;19.82;60.71
8653;BME280;4364;52.426;9.424;2023-07-13T13:38:46;101121.47;;;19.80;61.75
8653;BME280;4364;52.426;9.424;2023-07-13T13:41:13;101116.72;;;19.89;61.57
8653;BME280;4364;52.426;9.424;2023-07-13T13:43:41;101116.84;;;19.93;61.19
8653;BME280;4364;52.426;9.424;2023-07-13T13:46:29;101121.09;;;19.73;61.59
8653;BME280;4364;52.426;9.424;2023-07-13T13:48:56;101120.63;;;19.79;62.49
8653;BME280;4364;52.426;9.424;2023-07-13T13:51:24;101125.97;;;20.32;61.30
8653;BME280;4364;52.426;9.424;2023-07-13T13:53:51;101117.72;;;21.04;60.00
8653;BME280;4364;52.426;9.424;2023-07-13T13:56:18;101129.22;;;21.27;57.22